createdAt,value
2022-09-20T00:01:12.238Z,12.4
2022-09-20T00:04:37.424Z,12.4
2022-09-20T00:08:02.531Z,12.4
2022-09-20T00:11:27.751Z,12.42
2022-09-20T00:14:52.925Z,12.42
2022-09-20T00:18:18.105Z,12.39
2022-09-20T00:21:43.298Z,12.33
2022-09-20T00:25:08.469Z,12.29
2022-09-20T00:28:33.699Z,12.26
2022-09-20T00:31:58.937Z,12.24
2022-09-20T00:35:24.112Z,12.25
2022-09-20T00:38:49.270Z,12.21
2022-09-20T00:42:14.455Z,12.18
2022-09-20T00:45:39.715Z,12.16
2022-09-20T00:49:05.000Z,12.15
2022-09-20T00:52:30.031Z,12.13
2022-09-20T00:55:55.196Z,12.12
2022-09-20T00:59:20.382Z,12.14
2022-09-20T01:02:45.678Z,12.11
2022-09-20T01:06:10.759Z,12.08
2022-09-20T01:09:35.943Z,12.03
2022-09-20T01:13:01.118Z,11.97
2022-09-20T01:16:26.351Z,11.93
2022-09-20T01:19:51.550Z,11.93
2022-09-20T01:23:16.700Z,11.87
2022-09-20T01:26:41.883Z,11.8
2022-09-20T01:30:07.068Z,11.72
2022-09-20T01:33:32.232Z,11.7
2022-09-20T01:36:57.458Z,11.7
2022-09-20T01:40:22.645Z,11.65
2022-09-20T01:43:47.830Z,11.6
2022-09-20T01:47:13.007Z,11.6
2022-09-20T01:50:38.197Z,11.61
2022-09-20T01:54:03.415Z,11.64
2022-09-20T01:57:28.564Z,11.7
2022-09-20T02:00:53.817Z,11.77
2022-09-20T02:04:18.960Z,11.81
2022-09-20T02:07:44.141Z,11.88
2022-09-20T02:11:09.358Z,11.92
2022-09-20T02:14:34.531Z,11.94
2022-09-20T02:17:59.712Z,12
2022-09-20T02:21:24.911Z,12.03
2022-09-20T02:24:50.099Z,12.03
2022-09-20T02:28:15.319Z,12.03
2022-09-20T02:31:40.555Z,12.03
2022-09-20T02:35:05.655Z,12.01
2022-09-20T02:38:30.842Z,11.96
2022-09-20T02:41:56.046Z,11.92
2022-09-20T02:45:21.255Z,11.92
2022-09-20T02:48:46.431Z,11.92
2022-09-20T02:52:11.596Z,11.93
2022-09-20T02:55:36.789Z,11.92
2022-09-20T02:59:01.992Z,11.91
2022-09-20T03:02:27.308Z,11.92
2022-09-20T03:05:52.369Z,11.91
2022-09-20T03:09:17.556Z,11.87
2022-09-20T03:12:42.770Z,11.85
2022-09-20T03:16:07.995Z,11.86
2022-09-20T03:19:33.186Z,11.88
2022-09-20T03:22:58.340Z,11.87
2022-09-20T03:26:23.514Z,11.86
2022-09-20T03:29:48.714Z,11.84
2022-09-20T03:33:13.931Z,11.82
2022-09-20T03:36:39.129Z,11.77
2022-09-20T03:40:04.385Z,11.76
2022-09-20T03:43:29.479Z,11.75
2022-09-20T03:46:54.661Z,11.76
2022-09-20T03:50:19.866Z,11.8
2022-09-20T03:53:45.115Z,11.83
2022-09-20T03:57:10.270Z,11.85
2022-09-20T04:00:35.440Z,11.87
2022-09-20T04:04:00.631Z,11.87
2022-09-20T04:07:25.818Z,11.87
2022-09-20T04:10:51.031Z,11.89
2022-09-20T04:14:16.178Z,11.91
2022-09-20T04:17:41.372Z,11.86
2022-09-20T04:21:06.538Z,11.8
2022-09-20T04:24:31.737Z,11.74
2022-09-20T04:27:56.945Z,11.7
2022-09-20T04:31:22.199Z,11.68
2022-09-20T04:34:47.299Z,11.67
2022-09-20T04:38:12.510Z,11.59
2022-09-20T04:41:37.676Z,11.48
2022-09-20T04:45:02.898Z,11.43
2022-09-20T04:48:28.063Z,11.41
2022-09-20T04:51:54.457Z,11.45
2022-09-20T04:55:19.626Z,11.48
2022-09-20T04:58:44.843Z,11.51
2022-09-20T05:02:10.161Z,11.58
2022-09-20T05:05:35.235Z,11.63
2022-09-20T05:09:00.578Z,11.67
2022-09-20T05:12:25.653Z,11.72
2022-09-20T05:15:50.843Z,11.75
2022-09-20T05:19:16.046Z,11.76
2022-09-20T05:22:41.223Z,11.76
2022-09-20T05:26:06.390Z,11.78
2022-09-20T05:29:31.585Z,11.82
2022-09-20T05:32:56.777Z,11.88
2022-09-20T05:36:22.039Z,11.93
2022-09-20T05:39:47.204Z,11.96
2022-09-20T05:43:12.397Z,12.02
2022-09-20T05:46:37.584Z,12.04
2022-09-20T05:50:02.760Z,12.04
2022-09-20T05:53:27.953Z,12.04
2022-09-20T05:56:53.119Z,12.03
2022-09-20T06:00:18.324Z,12.04
2022-09-20T06:03:43.533Z,12.08
2022-09-20T06:07:08.720Z,12.11
2022-09-20T06:10:33.925Z,12.16
2022-09-20T06:13:59.076Z,12.17
2022-09-20T06:17:24.266Z,12.19
2022-09-20T06:20:49.462Z,12.17
2022-09-20T06:24:14.628Z,12.19
2022-09-20T06:27:39.854Z,12.23
2022-09-20T06:31:05.026Z,12.24
2022-09-20T06:34:30.185Z,12.27
2022-09-20T06:37:55.417Z,12.28
2022-09-20T06:41:20.607Z,12.21
2022-09-20T06:44:45.817Z,12.17
2022-09-20T06:48:11.000Z,12.19
2022-09-20T06:51:36.227Z,12.24
2022-09-20T06:55:01.418Z,12.26
2022-09-20T06:58:26.626Z,12.26
2022-09-20T07:01:51.899Z,12.24
2022-09-20T07:05:17.034Z,12.16
2022-09-20T07:08:42.243Z,12.11
2022-09-20T07:12:07.486Z,12.04
2022-09-20T07:15:32.673Z,11.97
2022-09-20T07:18:57.991Z,11.9
2022-09-20T07:22:23.071Z,11.89
2022-09-20T07:25:48.267Z,11.91
2022-09-20T07:29:13.479Z,11.94
2022-09-20T07:32:38.720Z,11.91
2022-09-20T07:36:04.235Z,11.9
2022-09-20T07:39:30.046Z,11.87
2022-09-20T07:42:56.269Z,11.83
2022-09-20T07:46:20.509Z,11.81
2022-09-20T07:49:45.744Z,11.83
2022-09-20T07:53:11.017Z,11.92
2022-09-20T07:56:36.171Z,12.03
2022-09-20T08:00:01.410Z,12.11
2022-09-20T08:03:26.614Z,12.23
2022-09-20T08:06:51.843Z,12.31
2022-09-20T08:10:17.078Z,12.4
2022-09-20T08:17:07.509Z,12.43
2022-09-20T08:20:32.751Z,12.45
2022-09-20T08:23:57.952Z,12.48
2022-09-20T08:27:23.223Z,12.53
2022-09-20T08:30:48.423Z,12.58
2022-09-20T08:34:13.651Z,12.62
2022-09-20T08:37:38.875Z,12.66
2022-09-20T08:41:04.088Z,12.67
2022-09-20T08:44:29.548Z,12.68
2022-09-20T08:47:58.437Z,12.71
2022-09-20T08:51:23.127Z,12.81
2022-09-20T08:54:44.978Z,12.94
2022-09-20T08:58:10.181Z,13.01
2022-09-20T09:01:35.434Z,12.96
2022-09-20T09:05:00.624Z,12.92
2022-09-20T09:08:25.859Z,12.94
2022-09-20T09:11:51.062Z,12.97
2022-09-20T09:15:17.505Z,13.03
2022-09-20T09:18:41.574Z,13.1
2022-09-20T09:22:06.741Z,13.11
2022-09-20T09:25:31.961Z,13.17
2022-09-20T09:28:57.173Z,13.21
2022-09-20T09:32:22.404Z,13.17
2022-09-20T09:35:47.632Z,13.04
2022-09-20T09:39:12.817Z,12.96
2022-09-20T09:42:38.032Z,12.95
2022-09-20T09:46:03.273Z,12.94
2022-09-20T09:49:28.457Z,12.99
2022-09-20T09:52:53.691Z,13.05
2022-09-20T09:56:18.868Z,13.16
2022-09-20T09:59:44.131Z,13.25
2022-09-20T10:03:09.359Z,13.29
2022-09-20T10:06:34.565Z,13.38
2022-09-20T10:09:59.806Z,13.51
2022-09-20T10:13:24.994Z,13.62
2022-09-20T10:16:50.289Z,13.67
2022-09-20T10:20:15.469Z,13.63
2022-09-20T10:24:01.828Z,13.51
2022-09-20T10:27:05.859Z,13.4
2022-09-20T10:30:31.145Z,13.34
2022-09-20T10:33:56.262Z,13.33
2022-09-20T10:37:21.521Z,13.37
2022-09-20T10:40:46.747Z,13.5
2022-09-20T10:44:11.979Z,13.66
2022-09-20T10:47:37.178Z,13.79
2022-09-20T10:51:02.391Z,13.79
2022-09-20T10:54:27.612Z,13.63
2022-09-20T10:57:52.824Z,13.49
2022-09-20T11:01:18.106Z,13.41
2022-09-20T11:04:43.269Z,13.48
2022-09-20T11:08:08.492Z,13.66
2022-09-20T11:11:33.739Z,13.84
2022-09-20T11:14:58.956Z,13.98
2022-09-20T11:18:24.214Z,13.96
2022-09-20T11:21:49.419Z,14.08
2022-09-20T11:25:18.100Z,14.19
2022-09-20T11:28:39.864Z,14.33
2022-09-20T11:32:05.439Z,14.51
2022-09-20T11:35:30.540Z,14.76
2022-09-20T11:38:55.727Z,14.86
2022-09-20T11:42:20.939Z,14.81
2022-09-20T11:45:46.188Z,14.64
2022-09-20T11:49:11.352Z,14.55
2022-09-20T11:52:36.604Z,14.56
2022-09-20T11:56:01.767Z,14.7
2022-09-20T11:59:26.997Z,14.84
2022-09-20T12:02:52.495Z,14.89
2022-09-20T12:06:17.622Z,14.87
2022-09-20T12:09:42.887Z,14.75
2022-09-20T12:13:08.070Z,14.6
2022-09-20T12:16:33.426Z,14.54
2022-09-20T12:19:58.603Z,14.59
2022-09-20T12:23:23.834Z,14.45
2022-09-20T12:26:49.401Z,14.32
2022-09-20T12:30:14.605Z,14.24
2022-09-20T12:33:39.815Z,14.16
2022-09-20T12:37:05.166Z,14.16
2022-09-20T12:40:30.419Z,14.24
2022-09-20T12:43:55.702Z,14.34
2022-09-20T12:47:20.844Z,14.46
2022-09-20T12:50:46.081Z,14.57
2022-09-20T12:54:11.300Z,14.69
2022-09-20T12:57:36.496Z,14.8
2022-09-20T13:01:01.792Z,14.95
2022-09-20T13:04:26.936Z,15.17
2022-09-20T13:07:52.139Z,15.32
2022-09-20T13:11:17.368Z,15.4
2022-09-20T13:14:42.592Z,15.39
2022-09-20T13:18:07.880Z,15.29
2022-09-20T13:21:33.207Z,15.13
2022-09-20T13:24:58.434Z,14.86
2022-09-20T13:28:23.630Z,14.61
2022-09-20T13:31:48.890Z,14.43
2022-09-20T13:35:14.088Z,14.17
2022-09-20T13:38:39.280Z,13.83
2022-09-20T13:42:04.475Z,13.6
2022-09-20T13:45:33.769Z,13.51
2022-09-20T13:48:55.157Z,13.52
2022-09-20T13:52:20.399Z,13.54
2022-09-20T13:55:45.622Z,13.66
2022-09-20T13:59:10.894Z,13.84
2022-09-20T14:02:36.110Z,13.99
2022-09-20T14:06:01.661Z,14.15
2022-09-20T14:09:26.895Z,14.25
2022-09-20T14:12:52.431Z,14.33
2022-09-20T14:16:18.351Z,14.39
2022-09-20T14:19:43.561Z,14.38
2022-09-20T14:23:08.771Z,14.29
2022-09-20T14:26:34.067Z,14.19
2022-09-20T14:29:59.336Z,14.06
2022-09-20T15:03:16.031Z,11.36
2022-09-20T15:06:41.305Z,12.38
2022-09-20T15:10:06.634Z,12.64
2022-09-20T15:13:32.026Z,12.92
2022-09-20T15:16:57.327Z,13.17
2022-09-20T15:20:24.419Z,13.37
2022-09-20T15:23:48.004Z,13.56
2022-09-20T15:27:13.379Z,13.68
2022-09-20T15:30:38.958Z,13.82
2022-09-20T15:34:04.267Z,13.93
2022-09-20T15:37:29.619Z,14.01
2022-09-20T15:40:54.918Z,14.07
2022-09-20T15:44:20.272Z,14.09
2022-09-20T15:47:45.634Z,14.13
2022-09-20T15:51:11.002Z,14.16
2022-09-20T15:54:36.388Z,14.15
2022-09-20T15:58:01.644Z,14.15
2022-09-20T16:01:26.964Z,14.15
2022-09-20T16:04:52.420Z,14.15
2022-09-20T16:08:18.511Z,14.16
2022-09-20T16:11:43.875Z,14.17
2022-09-20T16:15:09.188Z,14.18
2022-09-20T16:18:34.642Z,14.15
2022-09-20T16:21:59.995Z,14.1
2022-09-20T16:25:25.325Z,14.02
2022-09-20T16:28:50.852Z,13.96
2022-09-20T16:32:16.045Z,13.93
2022-09-20T16:35:41.361Z,13.91
2022-09-20T16:39:06.675Z,13.91
2022-09-20T16:42:31.952Z,13.88
2022-09-20T16:45:57.325Z,13.85
2022-09-20T16:49:22.773Z,13.81
2022-09-20T16:52:48.068Z,13.78
2022-09-20T16:56:16.074Z,13.74
2022-09-20T16:59:38.693Z,13.72
2022-09-20T17:03:04.022Z,13.66
2022-09-20T17:06:29.226Z,13.62
2022-09-20T17:09:54.499Z,13.58
2022-09-20T17:13:21.332Z,13.52
2022-09-20T17:16:46.598Z,13.48
2022-09-20T17:20:11.916Z,13.45
2022-09-20T17:23:37.201Z,13.42
2022-09-20T17:27:02.460Z,13.38
2022-09-20T17:30:27.730Z,13.34
2022-09-20T17:33:53.021Z,13.28
2022-09-20T17:37:18.321Z,13.23
2022-09-20T17:40:43.611Z,13.19
2022-09-20T17:44:09.200Z,13.17
2022-09-20T17:47:34.512Z,13.15
2022-09-20T17:50:59.883Z,13.13
2022-09-20T17:54:25.348Z,13.13
2022-09-20T17:57:50.567Z,13.13
2022-09-20T18:01:15.883Z,13.12
2022-09-20T18:04:41.135Z,13.11
2022-09-20T18:08:06.408Z,13.11
2022-09-20T18:11:31.694Z,13.11
2022-09-20T18:14:56.957Z,13.12
2022-09-20T18:18:22.933Z,13.13
2022-09-20T18:21:48.151Z,13.15
2022-09-20T18:25:13.424Z,13.17
2022-09-20T18:28:38.760Z,13.14
2022-09-20T18:32:04.006Z,13.13
2022-09-20T18:35:29.318Z,13.1
2022-09-20T18:38:54.601Z,13.04
2022-09-20T18:42:20.195Z,13.01
2022-09-20T18:45:45.532Z,13
2022-09-20T18:49:10.849Z,12.97
2022-09-20T18:52:36.175Z,12.95
2022-09-20T18:56:01.496Z,12.94
2022-09-20T18:59:26.786Z,12.91
2022-09-20T19:02:52.127Z,12.86
2022-09-20T19:06:17.388Z,12.82
2022-09-20T19:09:42.665Z,12.76
2022-09-20T19:13:07.952Z,12.71
2022-09-20T19:16:33.281Z,12.67
2022-09-20T19:19:58.569Z,12.63
2022-09-20T19:23:23.863Z,12.6
2022-09-20T19:26:49.157Z,12.6
2022-09-20T19:30:14.479Z,12.6
2022-09-20T19:33:39.759Z,12.52
2022-09-20T19:37:05.056Z,12.46
2022-09-20T19:40:30.376Z,12.45
2022-09-20T19:43:55.639Z,12.45
2022-09-20T19:47:20.963Z,12.45
2022-09-20T19:50:46.242Z,12.43
2022-09-20T19:54:11.544Z,12.43
2022-09-20T19:57:36.797Z,12.43
2022-09-20T20:01:02.092Z,12.41
2022-09-20T20:04:27.373Z,12.4
2022-09-20T20:07:52.597Z,12.37
2022-09-20T20:11:17.847Z,12.34
2022-09-20T20:14:43.017Z,12.27
2022-09-20T20:18:08.220Z,12.23
2022-09-20T20:21:33.451Z,12.21
2022-09-20T20:24:58.683Z,12.24
2022-09-20T20:28:23.950Z,12.24
2022-09-20T20:31:49.139Z,12.21
2022-09-20T20:35:14.379Z,12.14
2022-09-20T20:38:39.572Z,12.1
2022-09-20T20:42:04.809Z,12.06
2022-09-20T20:45:30.069Z,12.03
2022-09-20T20:48:55.283Z,11.97
2022-09-20T20:52:20.479Z,11.9
2022-09-20T20:55:45.697Z,11.87
2022-09-20T20:59:10.909Z,11.81
2022-09-20T21:02:36.189Z,11.78
2022-09-20T21:06:01.342Z,11.75
2022-09-20T21:09:26.562Z,11.76
2022-09-20T21:12:51.808Z,11.73
2022-09-20T21:16:17.052Z,11.74
2022-09-20T21:19:42.288Z,11.78
2022-09-20T21:23:07.480Z,11.81
2022-09-20T21:26:32.690Z,11.82
2022-09-20T21:29:57.943Z,11.83
2022-09-20T21:33:23.148Z,11.83
2022-09-20T21:36:48.375Z,11.82
2022-09-20T21:40:13.608Z,11.79
2022-09-20T21:43:38.803Z,11.77
2022-09-20T21:47:03.992Z,11.76
2022-09-20T21:50:29.199Z,11.77
2022-09-20T21:53:54.431Z,11.73
2022-09-20T21:57:19.617Z,11.7
2022-09-20T22:00:44.804Z,11.69
2022-09-20T22:04:10.016Z,11.69
2022-09-20T22:07:35.219Z,11.71
2022-09-20T22:11:00.448Z,11.71
2022-09-20T22:14:25.635Z,11.71
2022-09-20T22:17:50.842Z,11.73
2022-09-20T22:21:16.044Z,11.73
2022-09-20T22:24:41.253Z,11.7
2022-09-20T22:28:06.586Z,11.65
2022-09-20T22:31:31.694Z,11.62
2022-09-20T22:34:56.895Z,11.59
2022-09-20T22:38:22.086Z,11.58
2022-09-20T22:41:47.307Z,11.59
2022-09-20T22:45:12.530Z,11.59
2022-09-20T22:48:37.732Z,11.61
2022-09-20T22:52:02.952Z,11.65
2022-09-20T22:55:28.150Z,11.67
2022-09-20T22:58:53.362Z,11.67
2022-09-20T23:02:18.568Z,11.66
2022-09-20T23:05:43.782Z,11.66
2022-09-20T23:09:08.989Z,11.64
2022-09-20T23:12:34.183Z,11.62
2022-09-20T23:15:59.383Z,11.61
2022-09-20T23:19:24.627Z,11.6
2022-09-20T23:22:49.786Z,11.6
2022-09-20T23:26:14.989Z,11.63
2022-09-20T23:29:40.202Z,11.68
2022-09-20T23:33:05.426Z,11.67
2022-09-20T23:36:30.633Z,11.65
2022-09-20T23:39:55.832Z,11.63
2022-09-20T23:43:21.053Z,11.58
2022-09-20T23:46:46.224Z,11.52
2022-09-20T23:50:11.470Z,11.49
2022-09-20T23:53:36.680Z,11.48
2022-09-20T23:57:01.910Z,11.47
